Overview Statistics Trail Chart Weather Telemetry Raw packets
 

This is the latest recevied weather packets stored in our database for station/object OK5TVR-5. If no packets are shown the sender has not sent any weather packets the latest 10 day(s).

<< 31 32 33 34 35 36 37 >>
Time Temp. Humidity Pressure Rain* Wind** Luminosity Snow
1787986464 16.67° C 88% 1010.2 hPa 0.25 mm - 58 W/m² -
1787985564 17.22° C 91% 1009.9 hPa 0.25 mm - 108 W/m² -
1787984664 16.67° C 92% 1009.8 hPa 0.25 mm - 51 W/m² -
1787983764 15.56° C 96% 1010 hPa 0 mm - 35 W/m² -
1787981964 15° C 97% 1009.7 hPa 0 mm - 25 W/m² -
1787981064 15° C 97% 1009.7 hPa 0 mm - 17 W/m² -
1787980163 15° C 94% 1009.6 hPa 0 mm - 12 W/m² -
1787979263 15° C 93% 1009.5 hPa 0 mm - 9 W/m² -
1787978363 15.56° C 90% 1009.3 hPa 0 mm - 5 W/m² -
1787977471 15° C 95% 1009.4 hPa 0 mm - 2 W/m² -
1787976563 15° C 97% 1009.5 hPa 0 mm - 0 W/m² -
1787975664 15° C 97% 1009.3 hPa 0 mm - 0 W/m² -
1787974763 15° C 96% 1009.2 hPa 0 mm - 0 W/m² -
1787973868 15° C - - 0 mm - 0 W/m² -
1787973864 15° C 99% 1009 hPa 0 mm - 0 W/m² -
1787973863 15° C - - 0 mm - 0 W/m² -
1787972963 15° C 93% 1008.9 hPa 0 mm - 0 W/m² -
1787972063 15° C 91% 1008.9 hPa 0 mm - 0 W/m² -
1787971163 15.56° C 89% 1008.9 hPa 0 mm - 0 W/m² -
1787970268 15.56° C - - - - - -
1787970263 15.56° C 95% 1009 hPa 0 mm - 0 W/m² -
1787970263 15.56° C - - - - - -
1787969363 15.56° C 90% 1009 hPa 0 mm - 0 W/m² -
1787968463 16.11° C 90% 1008.7 hPa 0 mm - 0 W/m² -
1787967563 16.67° C 90% 1008.6 hPa 0.51 mm - 0 W/m² -

* Rain latest hour (hover to see other rain measurements)
** Current wind speed in m/s (hover to see current wind gust speed)